Terminal Aerodrome Forecast
Issued by NWS Cleveland, OH

Home | Current Version | Previous Version | Graphics & Text | Print | Product List | Glossary On
Versions: 1 2 3 4 5 6 7 8 9 10 11 12 13 14 15 16 17 18 19 20 21 22 23 24 25 26 27 28 29
000
FTUS41 KCLE 011124 CCA
TAFCLE
TAF COR
KCLE 011124Z 0112/0218 24006KT 6SM BR VCSH SCT012 BKN045
      TEMPO 0112/0114 5SM BR BKN012
     FM011400 28008KT P6SM SCT025 BKN045
      TEMPO 0114/0116 BKN025
     FM011600 30010KT P6SM BKN045
     FM012100 28008KT P6SM SCT045
     FM020200 36005KT P6SM SCT250
     FM020600 02004KT P6SM BKN100=

USA.gov is the U.S. government's official web portal to all federal, state and local government web resources and services.